首页
METAR-TAF:

METAR-TAF

机场 :

肯尼思·卡翁达国际机场

路沙卡, 赞比亚

纬度: 15-19-51S, 经度: 028-27-09E, 海拔: 1152米

当前天气观测

该预报发布于1小时和14分钟前的13:00 UTC
风速3节,风向东北
温度 26°C
湿度 32%
气压 1019 hPa
能见度10公里或以上
1500米以下无云,无积雨云

METAR: FLKK 251300Z 05003KT CAVOK 26/08 Q1019

时间: 16:14 (14:14 UTC)

预报

该预报发布于4小时和14分钟前的10:00 UTC
预报有效从25日的 12点(UTC)到 26日的 18点(UTC)
风速3节,风向多变
能见度10公里或以上
1500米以下无云,无积雨云
成为
从 26日的 09点(UTC)到 26日的 11点(UTC)
风速8节,风向北转西北
能见度10公里或以上
多云层高于4000英尺

TAF: FLKK 251000Z 2512/2618 VRB03KT CAVOK BECMG 2609/2611 34008KT 9999 BKN040

超过4000个机场的气象观测和天气预报(METAR&TAF报告)。

可查询的气象台以黄色和红色小点在地图上表示。

将鼠标移到小点上方,可查看气象台名称。

然后点击查看天气观测和预报。

如需切换地图:点击带黑十字的绿色按钮放大地图;点击带横线的绿色按钮缩小地图;或者点击绿色箭头查看邻近地区的地图。


METAR-TAF: